createdAt,value
2022-10-26T00:00:52.996Z,17.70
2022-10-26T00:03:22.292Z,17.60
2022-10-26T00:05:50.209Z,17.60
2022-10-26T00:08:18.161Z,17.70
2022-10-26T00:10:46.085Z,17.60
2022-10-26T00:13:14.473Z,17.40
2022-10-26T00:15:43.293Z,17.40
2022-10-26T00:18:11.510Z,17.30
2022-10-26T00:20:40.773Z,16.90
2022-10-26T00:23:08.878Z,17.10
2022-10-26T00:25:36.955Z,17.20
2022-10-26T00:28:05.089Z,17.10
2022-10-26T00:30:33.195Z,17.20
2022-10-26T00:33:01.122Z,17.30
2022-10-26T00:35:44.918Z,17.50
2022-10-26T00:38:14.706Z,17.50
2022-10-26T00:40:44.324Z,17.70
2022-10-26T00:43:17.529Z,17.70
2022-10-26T00:45:46.592Z,17.40
2022-10-26T00:48:18.600Z,17.50
2022-10-26T00:50:48.545Z,17.50
2022-10-26T00:53:19.160Z,17.50
2022-10-26T00:55:50.261Z,17.40
2022-10-26T00:58:19.481Z,17.40
2022-10-26T01:00:48.076Z,17.40
2022-10-26T01:03:16.748Z,17.20
2022-10-26T01:05:46.760Z,17.20
2022-10-26T01:08:17.191Z,17.10
2022-10-26T01:10:45.326Z,17.20
2022-10-26T01:13:14.220Z,17.50
2022-10-26T01:15:52.403Z,17.30
2022-10-26T01:18:27.516Z,17.40
2022-10-26T01:21:24.728Z,17.40
2022-10-26T01:24:15.077Z,17.30
2022-10-26T01:27:06.293Z,17.20
2022-10-26T01:30:06.905Z,17.30
2022-10-26T01:32:41.636Z,17.00
2022-10-26T01:35:13.682Z,16.80
2022-10-26T01:37:48.322Z,16.70
2022-10-26T01:40:21.563Z,16.70
2022-10-26T01:43:00.460Z,16.90
2022-10-26T01:45:30.794Z,17.20
2022-10-26T01:48:01.789Z,17.20
2022-10-26T01:50:32.173Z,17.00
2022-10-26T01:53:00.308Z,17.20
2022-10-26T01:55:50.409Z,17.20
2022-10-26T01:58:48.524Z,17.30
2022-10-26T02:01:39.179Z,17.30
2022-10-26T02:04:20.114Z,17.10
2022-10-26T02:07:01.162Z,17.10
2022-10-26T02:09:38.989Z,17.10
2022-10-26T02:12:15.159Z,17.10
2022-10-26T02:14:49.369Z,16.70
2022-10-26T02:17:24.041Z,16.70
2022-10-26T02:19:57.107Z,16.80
2022-10-26T02:22:28.002Z,17.00
2022-10-26T02:24:57.600Z,17.00
2022-10-26T02:27:28.697Z,17.20
2022-10-26T02:29:58.350Z,17.30
2022-10-26T02:32:29.494Z,17.20
2022-10-26T02:35:01.289Z,17.00
2022-10-26T02:37:33.259Z,16.90
2022-10-26T02:40:04.901Z,16.90
2022-10-26T02:45:34.214Z,17.00
2022-10-26T02:48:02.233Z,17.00
2022-10-26T02:50:39.377Z,17.10
2022-10-26T02:53:16.937Z,17.20
2022-10-26T02:55:50.285Z,16.90
2022-10-26T02:58:23.237Z,16.90
2022-10-26T03:00:51.837Z,17.00
2022-10-26T03:03:20.633Z,17.20
2022-10-26T03:05:50.139Z,17.20
2022-10-26T03:08:18.444Z,17.10
2022-10-26T03:10:47.183Z,17.10
2022-10-26T03:13:15.601Z,17.10
2022-10-26T03:15:43.594Z,16.70
2022-10-26T03:18:11.554Z,16.70
2022-10-26T03:20:39.478Z,16.50
2022-10-26T03:23:08.748Z,16.50
2022-10-26T03:25:36.693Z,16.60
2022-10-26T03:28:06.103Z,16.70
2022-10-26T03:30:34.250Z,16.90
2022-10-26T03:33:02.229Z,16.80
2022-10-26T03:35:30.179Z,16.60
2022-10-26T03:37:58.136Z,16.40
2022-10-26T03:40:27.481Z,16.50
2022-10-26T03:45:33.305Z,16.40
2022-10-26T03:48:01.271Z,16.60
2022-10-26T03:50:29.228Z,16.80
2022-10-26T03:52:57.120Z,16.90
2022-10-26T03:55:25.074Z,16.90
2022-10-26T03:57:56.161Z,16.80
2022-10-26T04:00:24.117Z,16.90
2022-10-26T04:02:56.576Z,17.00
2022-10-26T04:05:25.379Z,17.10
2022-10-26T04:07:54.971Z,17.10
2022-10-26T04:10:23.032Z,17.10
2022-10-26T04:12:51.051Z,17.00
2022-10-26T04:15:21.690Z,16.80
2022-10-26T04:17:49.903Z,16.80
2022-10-26T04:20:18.388Z,16.60
2022-10-26T04:22:46.394Z,16.70
2022-10-26T04:25:14.489Z,16.80
2022-10-26T04:27:42.421Z,16.60
2022-10-26T04:30:11.288Z,16.60
2022-10-26T04:32:40.792Z,16.60
2022-10-26T04:35:12.080Z,16.80
2022-10-26T04:37:43.238Z,16.90
2022-10-26T04:40:12.001Z,17.10
2022-10-26T04:42:44.070Z,17.10
2022-10-26T04:45:13.635Z,17.10
2022-10-26T04:47:44.577Z,17.10
2022-10-26T04:50:14.021Z,17.30
2022-10-26T04:52:42.601Z,17.00
2022-10-26T04:55:10.842Z,16.80
2022-10-26T04:57:38.771Z,16.30
2022-10-26T05:00:07.421Z,15.90
2022-10-26T05:02:35.320Z,15.90
2022-10-26T05:05:06.166Z,15.80
2022-10-26T05:07:35.883Z,16.10
2022-10-26T05:10:03.969Z,16.30
2022-10-26T05:12:31.935Z,16.30
2022-10-26T05:15:00.301Z,16.40
2022-10-26T05:17:32.081Z,16.50
2022-10-26T05:20:05.687Z,16.60
2022-10-26T05:22:34.989Z,16.70
2022-10-26T05:25:02.951Z,16.80
2022-10-26T05:27:30.890Z,16.70
2022-10-26T05:30:01.319Z,16.80
2022-10-26T05:32:29.322Z,16.80
2022-10-26T05:34:57.322Z,16.80
2022-10-26T05:37:25.208Z,16.80
2022-10-26T05:39:54.537Z,16.80
2022-10-26T05:42:22.663Z,16.80
2022-10-26T05:44:50.632Z,16.80
2022-10-26T05:47:18.616Z,17.00
2022-10-26T05:49:46.577Z,17.00
2022-10-26T05:52:14.506Z,17.10
2022-10-26T05:54:42.419Z,17.00
2022-10-26T05:57:14.487Z,16.80
2022-10-26T05:59:42.883Z,16.70
2022-10-26T06:02:20.232Z,16.70
2022-10-26T06:04:48.989Z,16.80
2022-10-26T06:07:20.028Z,16.70
2022-10-26T06:09:49.010Z,16.30
2022-10-26T06:12:19.876Z,16.40
2022-10-26T06:14:48.746Z,16.50
2022-10-26T06:17:41.993Z,16.60
2022-10-26T06:20:35.126Z,16.60
2022-10-26T06:23:20.986Z,16.60
2022-10-26T06:25:59.172Z,16.40
2022-10-26T06:28:37.077Z,16.30
2022-10-26T06:31:05.345Z,16.50
2022-10-26T06:33:33.539Z,16.50
2022-10-26T06:36:15.920Z,16.50
2022-10-26T06:38:47.040Z,16.50
2022-10-26T06:41:18.919Z,16.60
2022-10-26T06:43:49.210Z,16.70
2022-10-26T06:46:35.781Z,16.80
2022-10-26T06:49:10.416Z,16.80
2022-10-26T06:51:47.071Z,16.70
2022-10-26T06:54:22.743Z,16.70
2022-10-26T06:56:52.765Z,16.80
2022-10-26T06:59:35.520Z,17.00
2022-10-26T07:02:06.361Z,17.10
2022-10-26T07:04:37.061Z,17.00
2022-10-26T07:07:05.267Z,16.90
2022-10-26T07:09:33.216Z,16.90
2022-10-26T07:12:01.622Z,16.90
2022-10-26T07:14:30.926Z,17.00
2022-10-26T07:16:58.881Z,17.10
2022-10-26T07:19:26.856Z,17.00
2022-10-26T07:21:56.651Z,17.10
2022-10-26T07:24:24.749Z,17.20
2022-10-26T07:26:54.867Z,17.30
2022-10-26T07:29:22.922Z,17.50
2022-10-26T07:34:25.604Z,17.50
2022-10-26T07:36:53.865Z,17.50
2022-10-26T07:39:21.851Z,17.70
2022-10-26T07:41:51.950Z,17.80
2022-10-26T07:44:20.141Z,17.70
2022-10-26T07:46:48.229Z,17.90
2022-10-26T07:49:19.572Z,18.10
2022-10-26T07:51:48.044Z,18.00
2022-10-26T07:54:15.992Z,18.00
2022-10-26T07:56:43.995Z,18.10
2022-10-26T07:59:13.302Z,18.00
2022-10-26T08:01:41.328Z,17.90
2022-10-26T08:04:09.368Z,18.10
2022-10-26T08:06:38.686Z,18.20
2022-10-26T08:09:06.776Z,18.10
2022-10-26T08:11:36.962Z,18.20
2022-10-26T08:14:05.109Z,18.40
2022-10-26T08:16:34.778Z,18.50
2022-10-26T08:19:02.685Z,18.60
2022-10-26T08:21:45.876Z,18.80
2022-10-26T08:24:15.246Z,19.10
2022-10-26T08:26:43.870Z,19.20
2022-10-26T08:29:11.873Z,18.90
2022-10-26T08:31:39.827Z,18.80
2022-10-26T08:34:07.877Z,18.90
2022-10-26T08:36:35.798Z,18.70
2022-10-26T08:39:03.887Z,18.80
2022-10-26T08:41:38.653Z,18.90
2022-10-26T08:44:19.723Z,18.90
2022-10-26T08:46:53.382Z,19.10
2022-10-26T08:49:26.006Z,19.20
2022-10-26T08:51:58.711Z,19.20
2022-10-26T08:54:36.261Z,19.10
2022-10-26T08:57:15.222Z,19.20
2022-10-26T08:59:48.754Z,19.30
2022-10-26T09:02:18.934Z,19.20
2022-10-26T09:04:47.449Z,19.30
2022-10-26T09:07:37.019Z,19.30
2022-10-26T09:10:15.007Z,19.50
2022-10-26T09:12:50.156Z,19.00
2022-10-26T09:15:28.045Z,19.00
2022-10-26T09:18:05.593Z,18.90
2022-10-26T09:20:55.546Z,19.10
2022-10-26T09:23:38.340Z,19.30
2022-10-26T09:26:14.297Z,19.30
2022-10-26T09:28:47.690Z,19.50
2022-10-26T09:31:18.281Z,19.60
2022-10-26T09:33:46.254Z,19.70
2022-10-26T09:36:19.858Z,20.00
2022-10-26T09:38:56.304Z,20.00
2022-10-26T09:41:31.640Z,20.10
2022-10-26T09:44:09.915Z,20.20
2022-10-26T09:46:47.960Z,20.20
2022-10-26T09:49:18.605Z,20.40
2022-10-26T09:51:46.566Z,20.40
2022-10-26T09:54:17.239Z,20.60
2022-10-26T09:56:47.372Z,20.70
2022-10-26T09:59:19.284Z,20.50
2022-10-26T10:01:47.281Z,20.40
2022-10-26T10:04:21.230Z,20.40
2022-10-26T10:06:50.752Z,20.50
2022-10-26T10:09:20.984Z,20.60
2022-10-26T10:11:56.428Z,20.60
2022-10-26T10:14:28.507Z,20.40
2022-10-26T10:16:58.160Z,20.30
2022-10-26T10:19:28.554Z,20.40
2022-10-26T10:21:59.495Z,20.50
2022-10-26T10:24:29.635Z,20.50
2022-10-26T10:27:02.782Z,20.60
2022-10-26T10:29:34.399Z,20.70
2022-10-26T10:32:04.048Z,20.70
2022-10-26T10:34:32.965Z,20.70
2022-10-26T10:37:01.822Z,20.70
2022-10-26T10:39:39.722Z,20.80
2022-10-26T10:42:17.582Z,20.90
2022-10-26T10:44:48.384Z,20.90
2022-10-26T10:47:23.527Z,20.90
2022-10-26T10:49:57.233Z,21.00
2022-10-26T10:52:28.399Z,21.00
2022-10-26T10:55:16.366Z,20.90
2022-10-26T10:57:58.232Z,20.90
2022-10-26T11:00:27.743Z,20.90
2022-10-26T11:03:19.979Z,21.10
2022-10-26T11:06:06.150Z,21.30
2022-10-26T11:08:42.197Z,21.40
2022-10-26T11:11:14.186Z,21.30
2022-10-26T11:13:49.731Z,21.30
2022-10-26T11:16:23.939Z,21.30
2022-10-26T11:18:55.237Z,21.30
2022-10-26T11:21:28.876Z,21.30
2022-10-26T11:24:11.311Z,21.50
2022-10-26T11:26:46.208Z,21.40
2022-10-26T11:29:24.533Z,21.40
2022-10-26T11:32:00.057Z,21.40
2022-10-26T11:34:35.074Z,21.40
2022-10-26T11:37:11.028Z,21.30
2022-10-26T11:39:46.028Z,21.20
2022-10-26T11:42:24.834Z,21.30
2022-10-26T11:44:56.701Z,21.40
2022-10-26T11:47:35.456Z,21.50
2022-10-26T11:50:14.735Z,21.60
2022-10-26T11:52:49.301Z,21.50
2022-10-26T11:55:19.241Z,21.40
2022-10-26T11:57:47.997Z,21.50
2022-10-26T12:00:18.579Z,21.40
2022-10-26T12:02:51.228Z,21.40
2022-10-26T12:05:22.983Z,21.50
2022-10-26T12:07:54.224Z,21.60
2022-10-26T12:10:29.077Z,21.60
2022-10-26T12:13:08.501Z,21.60
2022-10-26T12:16:02.136Z,21.60
2022-10-26T12:18:57.259Z,21.60
2022-10-26T12:21:28.829Z,21.70
2022-10-26T12:23:59.533Z,21.80
2022-10-26T12:26:51.833Z,21.90
2022-10-26T12:29:47.624Z,22.00
2022-10-26T12:32:54.737Z,22.10
2022-10-26T12:35:36.914Z,21.90
2022-10-26T12:38:52.018Z,21.80
2022-10-26T12:41:27.549Z,21.80
2022-10-26T12:46:40.559Z,21.70
2022-10-26T12:49:59.119Z,21.80
2022-10-26T12:52:48.612Z,21.80
2022-10-26T12:55:39.341Z,21.90
2022-10-26T12:58:42.484Z,22.00
2022-10-26T13:01:33.497Z,22.20
2022-10-26T13:04:26.203Z,22.30
2022-10-26T13:07:17.750Z,22.30
2022-10-26T13:09:56.097Z,22.20
2022-10-26T13:12:24.180Z,22.20
2022-10-26T13:15:02.620Z,22.30
2022-10-26T13:20:08.211Z,22.20
2022-10-26T13:22:46.820Z,22.20
2022-10-26T13:25:24.413Z,22.00
2022-10-26T13:28:07.154Z,22.10
2022-10-26T13:30:45.653Z,21.90
2022-10-26T13:33:23.834Z,21.80
2022-10-26T13:35:58.257Z,21.90
2022-10-26T13:38:32.342Z,22.00
2022-10-26T13:41:24.933Z,22.20
2022-10-26T13:46:39.617Z,22.20
2022-10-26T13:49:14.587Z,22.30
2022-10-26T13:51:45.351Z,22.30
2022-10-26T13:54:23.913Z,22.30
2022-10-26T13:57:05.027Z,22.30
2022-10-26T13:59:38.519Z,22.30
2022-10-26T14:02:19.200Z,22.40
2022-10-26T14:04:49.714Z,22.30
2022-10-26T14:07:22.809Z,22.30
2022-10-26T14:09:55.557Z,22.20
2022-10-26T14:12:26.319Z,22.20
2022-10-26T14:14:55.265Z,22.10
2022-10-26T14:17:26.672Z,22.10
2022-10-26T14:19:55.317Z,22.20
2022-10-26T14:22:27.414Z,22.10
2022-10-26T14:24:56.812Z,22.10
2022-10-26T14:27:28.590Z,22.00
2022-10-26T14:30:21.528Z,22.00
2022-10-26T14:32:44.810Z,22.00
2022-10-26T14:35:13.976Z,21.80
2022-10-26T14:37:50.685Z,21.70
2022-10-26T14:40:20.588Z,21.70
2022-10-26T14:42:54.094Z,21.60
2022-10-26T14:45:29.856Z,21.50
2022-10-26T14:48:23.734Z,21.40
2022-10-26T14:51:02.361Z,21.30
2022-10-26T14:53:37.414Z,21.30
2022-10-26T14:56:07.127Z,21.30
2022-10-26T14:58:37.638Z,21.20
2022-10-26T15:01:36.172Z,21.20
2022-10-26T15:04:06.599Z,21.10
2022-10-26T15:06:44.482Z,21.10
2022-10-26T15:09:38.921Z,21.00
2022-10-26T15:12:09.519Z,21.00
2022-10-26T15:14:43.677Z,21.00
2022-10-26T15:17:23.468Z,21.00
2022-10-26T15:19:53.660Z,21.00
2022-10-26T15:22:29.516Z,21.00
2022-10-26T15:25:03.149Z,21.00
2022-10-26T15:27:31.645Z,21.00
2022-10-26T15:30:26.171Z,20.90
2022-10-26T15:32:55.019Z,20.90
2022-10-26T15:35:31.483Z,20.90
2022-10-26T15:38:01.020Z,20.90
2022-10-26T15:40:30.760Z,20.90
2022-10-26T15:43:01.607Z,20.70
2022-10-26T15:45:34.079Z,20.70
2022-10-26T15:48:18.437Z,20.60
2022-10-26T15:50:46.361Z,20.60
2022-10-26T15:53:20.490Z,20.50
2022-10-26T15:55:48.961Z,20.60
2022-10-26T15:58:17.222Z,20.60
2022-10-26T16:00:46.739Z,20.60
2022-10-26T16:03:17.871Z,20.50
2022-10-26T16:05:46.070Z,20.40
2022-10-26T16:08:18.005Z,20.40
2022-10-26T16:10:47.501Z,20.30
2022-10-26T16:13:16.080Z,20.40
2022-10-26T16:15:44.566Z,20.40
2022-10-26T16:18:13.961Z,20.30
2022-10-26T16:20:42.590Z,20.20
2022-10-26T16:23:10.479Z,20.20
2022-10-26T16:25:43.982Z,20.20
2022-10-26T16:28:14.170Z,20.10
2022-10-26T16:30:42.181Z,20.10
2022-10-26T16:33:10.291Z,20.00
2022-10-26T16:35:39.581Z,20.00
2022-10-26T16:38:07.603Z,20.00
2022-10-26T16:40:35.574Z,19.90
2022-10-26T16:43:03.514Z,19.90
2022-10-26T16:45:31.830Z,20.00
2022-10-26T16:47:59.778Z,20.00
2022-10-26T16:50:27.725Z,20.00
2022-10-26T16:52:57.057Z,19.90
2022-10-26T16:55:25.089Z,20.00
2022-10-26T16:57:53.125Z,19.90
2022-10-26T17:00:21.221Z,19.90
2022-10-26T17:02:49.154Z,19.80
2022-10-26T17:05:17.196Z,19.80
2022-10-26T17:07:45.180Z,19.70
2022-10-26T17:10:14.500Z,19.70
2022-10-26T17:12:42.458Z,19.80
2022-10-26T17:15:12.888Z,19.80
2022-10-26T17:17:42.946Z,19.70
2022-10-26T17:20:12.258Z,19.70
2022-10-26T17:22:40.845Z,19.70
2022-10-26T17:25:09.278Z,19.60
2022-10-26T17:27:41.240Z,19.60
2022-10-26T17:30:11.976Z,19.60
2022-10-26T17:32:39.908Z,19.50
2022-10-26T17:35:08.504Z,19.60
2022-10-26T17:37:37.545Z,19.60
2022-10-26T17:40:06.369Z,19.70
2022-10-26T17:42:34.341Z,19.60
2022-10-26T17:45:03.659Z,19.60
2022-10-26T17:47:31.662Z,19.50
2022-10-26T17:50:00.139Z,19.60
2022-10-26T17:52:28.093Z,19.60
2022-10-26T17:54:58.102Z,19.50
2022-10-26T17:57:28.455Z,19.50
2022-10-26T17:59:56.438Z,19.40
2022-10-26T18:02:25.911Z,19.50
2022-10-26T18:04:53.905Z,19.50
2022-10-26T18:07:22.241Z,19.50
2022-10-26T18:09:50.231Z,19.50
2022-10-26T18:12:18.161Z,19.50
2022-10-26T18:14:46.117Z,19.50
2022-10-26T18:17:14.127Z,19.50
2022-10-26T18:19:43.406Z,19.40
2022-10-26T18:22:11.345Z,19.40
2022-10-26T18:24:39.280Z,19.40
2022-10-26T18:27:07.238Z,19.40
2022-10-26T18:29:37.497Z,19.40
2022-10-26T18:32:07.703Z,19.30
2022-10-26T18:34:35.947Z,19.30
2022-10-26T18:37:05.252Z,19.30
2022-10-26T18:39:33.185Z,19.50
2022-10-26T18:42:01.122Z,19.40
2022-10-26T18:47:17.209Z,19.10
2022-10-26T18:49:45.157Z,19.10
2022-10-26T18:52:14.518Z,19.00
2022-10-26T18:54:42.461Z,19.00
2022-10-26T18:57:10.448Z,19.20
2022-10-26T18:59:38.383Z,19.10
2022-10-26T19:04:39.221Z,19.00
2022-10-26T19:07:07.505Z,19.10
2022-10-26T19:09:36.838Z,19.00
2022-10-26T19:12:04.984Z,19.00
2022-10-26T19:14:32.912Z,19.00
2022-10-26T19:17:00.859Z,18.90
2022-10-26T19:19:28.790Z,18.90
2022-10-26T19:21:56.765Z,18.90
2022-10-26T19:24:24.943Z,18.90
2022-10-26T19:26:54.277Z,18.90
2022-10-26T19:29:22.282Z,18.90
2022-10-26T19:31:53.520Z,18.80
2022-10-26T19:34:21.691Z,18.80
2022-10-26T19:36:49.778Z,18.80
2022-10-26T19:39:18.812Z,18.90
2022-10-26T19:41:47.434Z,18.80
2022-10-26T19:44:17.386Z,18.80
2022-10-26T19:46:47.588Z,18.90
2022-10-26T19:49:17.445Z,18.80
2022-10-26T19:51:45.425Z,18.70
2022-10-26T19:54:13.389Z,18.80
2022-10-26T19:56:41.316Z,18.80
2022-10-26T19:59:09.298Z,18.80
2022-10-26T20:01:38.897Z,18.70
2022-10-26T20:04:07.331Z,18.60
2022-10-26T20:06:35.547Z,18.60
2022-10-26T20:09:03.861Z,18.60
2022-10-26T20:11:32.337Z,18.60
2022-10-26T20:14:00.556Z,18.70
2022-10-26T20:16:28.567Z,18.60
2022-10-26T20:18:57.918Z,18.60
2022-10-26T20:21:25.892Z,18.50
2022-10-26T20:23:53.909Z,18.50
2022-10-26T20:26:23.389Z,18.60
2022-10-26T20:28:53.219Z,18.60
2022-10-26T20:31:21.120Z,18.60
2022-10-26T20:33:52.036Z,18.50
2022-10-26T20:36:21.798Z,18.40
2022-10-26T20:38:50.455Z,18.40
2022-10-26T20:41:19.044Z,18.50
2022-10-26T20:43:47.747Z,18.60
2022-10-26T20:46:23.268Z,18.50
2022-10-26T20:48:52.240Z,18.50
2022-10-26T20:51:27.079Z,18.40
2022-10-26T20:54:03.493Z,18.40
2022-10-26T20:56:33.040Z,18.30
2022-10-26T20:59:03.387Z,18.30
2022-10-26T21:01:33.357Z,18.30
2022-10-26T21:04:02.977Z,18.30
2022-10-26T21:06:39.787Z,18.40
2022-10-26T21:09:08.727Z,18.30
2022-10-26T21:11:37.206Z,18.30
2022-10-26T21:14:06.360Z,18.30
2022-10-26T21:16:34.514Z,18.20
2022-10-26T21:19:04.924Z,18.20
2022-10-26T21:21:34.281Z,18.30
2022-10-26T21:24:02.947Z,18.30
2022-10-26T21:26:30.873Z,18.30
2022-10-26T21:28:58.789Z,18.30
2022-10-26T21:31:26.782Z,18.40
2022-10-26T21:33:54.718Z,18.10
2022-10-26T21:36:23.099Z,18.20
2022-10-26T21:38:52.408Z,18.20
2022-10-26T21:41:21.942Z,18.20
2022-10-26T21:43:59.229Z,18.10
2022-10-26T21:46:36.986Z,18.10
2022-10-26T21:49:05.288Z,18.10
2022-10-26T21:51:33.266Z,18.10
2022-10-26T21:54:02.664Z,18.20
2022-10-26T21:56:30.608Z,18.10
2022-10-26T21:59:00.106Z,18.00
2022-10-26T22:01:28.268Z,17.90
2022-10-26T22:03:56.276Z,17.90
2022-10-26T22:06:24.477Z,17.70
2022-10-26T22:08:52.468Z,17.70
2022-10-26T22:11:23.413Z,17.60
2022-10-26T22:13:52.076Z,17.50
2022-10-26T22:16:21.649Z,17.70
2022-10-26T22:18:51.214Z,17.70
2022-10-26T22:21:20.758Z,17.80
2022-10-26T22:23:49.168Z,17.90
2022-10-26T22:26:19.608Z,18.00
2022-10-26T22:28:51.918Z,17.90
2022-10-26T22:31:22.001Z,17.90
2022-10-26T22:33:53.742Z,17.90
2022-10-26T22:36:22.369Z,17.90
2022-10-26T22:38:51.063Z,17.80
2022-10-26T22:41:20.142Z,17.80
2022-10-26T22:43:50.723Z,17.80
2022-10-26T22:46:20.741Z,17.40
2022-10-26T22:48:48.971Z,17.40
2022-10-26T22:51:19.698Z,17.40
2022-10-26T22:53:51.792Z,17.60
2022-10-26T22:56:19.746Z,17.60
2022-10-26T22:58:49.130Z,17.80
2022-10-26T23:01:19.646Z,17.60
2022-10-26T23:03:47.942Z,17.40
2022-10-26T23:06:17.558Z,17.00
2022-10-26T23:08:45.875Z,17.30
2022-10-26T23:11:15.813Z,17.30
2022-10-26T23:13:43.795Z,17.40
2022-10-26T23:16:15.033Z,17.30
2022-10-26T23:18:43.317Z,17.40
2022-10-26T23:21:12.454Z,17.10
2022-10-26T23:23:41.045Z,17.20
2022-10-26T23:26:12.042Z,17.30
2022-10-26T23:28:40.846Z,17.40
2022-10-26T23:31:09.889Z,17.30
2022-10-26T23:33:39.169Z,17.30
2022-10-26T23:36:07.567Z,17.40
2022-10-26T23:38:35.479Z,17.00
2022-10-26T23:41:03.472Z,17.20
2022-10-26T23:43:31.401Z,17.30
2022-10-26T23:45:59.397Z,17.30
2022-10-26T23:48:27.320Z,17.20
2022-10-26T23:50:56.883Z,17.50
2022-10-26T23:53:26.174Z,17.60
2022-10-26T23:55:54.464Z,17.70
2022-10-26T23:58:22.435Z,17.90
